Time;durP1;ratioP1;P1;durP2;ratioP2;P2;SDS_P1;SDS_P2;PMS_P1;PMS_P2;Temp;Humidity;BMP_temperature;BMP_pressure;BME280_temperature;BME280_humidity;BME280_pressure;Samples;Min_cycle;Max_cycle;Signal;HPM_P1;HPM_P2
2022/10/15 00:00:46;;;;;;;0.17;0.17;;;;;;;17.89;43.65;95334.78;5107704;28;20466;-65
2022/10/15 00:03:14;;;;;;;0.47;0.47;;;;;;;17.79;43.68;95340.28;5097845;28;20515;-67
2022/10/15 00:05:41;;;;;;;0.10;0.10;;;;;;;17.98;43.28;95339.16;5091547;28;20505;-69
2022/10/15 00:08:09;;;;;;;0.57;0.57;;;;;;;17.94;43.47;95326.75;5098509;28;20505;-67
2022/10/15 00:10:36;;;;;;;0.17;0.17;;;;;;;17.87;43.85;95336.94;5108689;28;20938;-68
2022/10/15 00:13:04;;;;;;;0.23;0.23;;;;;;;17.93;43.42;95338.44;5109312;28;20502;-67
2022/10/15 00:15:31;;;;;;;0.23;0.23;;;;;;;17.80;43.84;95333.88;5107499;28;20443;-67
2022/10/15 00:17:58;;;;;;;0.10;0.10;;;;;;;17.83;44.06;95334.09;5109275;28;20614;-70
2022/10/15 00:20:24;;;;;;;0.27;0.27;;;;;;;17.77;44.19;95321.22;5108809;28;20436;-68
2022/10/15 00:22:51;;;;;;;0.40;0.40;;;;;;;17.72;44.81;95318.63;5108802;28;20959;-64
2022/10/15 00:25:18;;;;;;;0.50;0.30;;;;;;;17.84;44.08;95326.91;5108970;28;20428;-70
2022/10/15 00:27:45;;;;;;;0.27;0.27;;;;;;;17.52;44.85;95334.81;5095236;28;20470;-67
2022/10/15 00:30:12;;;;;;;0.20;0.20;;;;;;;17.40;45.57;95321.22;5108830;28;20483;-65
2022/10/15 00:32:39;;;;;;;0.37;0.30;;;;;;;17.50;45.10;95305.22;5092915;28;20532;-70
2022/10/15 00:35:06;;;;;;;3.90;0.30;;;;;;;17.55;45.32;95315.72;5096040;28;20876;-63
2022/10/15 00:37:33;;;;;;;0.20;0.20;;;;;;;17.51;45.02;95314.72;5108868;28;20476;-65
2022/10/15 00:40:00;;;;;;;0.10;0.10;;;;;;;17.60;45.07;95315.63;5102717;28;20496;-68
2022/10/15 00:42:30;;;;;;;0.20;0.20;;;;;;;17.64;45.27;95316.66;5091028;28;20979;-63
2022/10/15 00:44:59;;;;;;;0.20;0.20;;;;;;;17.72;45.15;95308.00;5098433;28;20472;-68
2022/10/15 00:47:37;;;;;;;0.07;0.07;;;;;;;17.98;44.70;95307.31;5108931;28;20498;-62
2022/10/15 00:50:12;;;;;;;0.30;0.30;;;;;;;17.73;45.27;95306.94;5110283;28;20440;-67
2022/10/15 00:53:14;;;;;;;0.10;0.10;;;;;;;17.54;45.79;95303.53;5091016;28;20433;-66
2022/10/15 00:55:42;;;;;;;0.20;0.20;;;;;;;17.55;46.02;95297.19;5052522;28;20527;-68
2022/10/15 00:58:15;;;;;;;1.30;0.63;;;;;;;17.51;45.78;95296.16;5098980;28;20479;-66
2022/10/15 01:00:43;;;;;;;0.43;0.43;;;;;;;17.61;45.60;95296.03;5091879;28;20497;-64
2022/10/15 01:03:11;;;;;;;0.47;0.47;;;;;;;17.63;45.95;95307.09;5090857;28;20445;-65
2022/10/15 01:05:39;;;;;;;0.10;0.10;;;;;;;17.69;45.65;95298.00;5106007;28;20449;-69
2022/10/15 01:08:09;;;;;;;0.73;0.73;;;;;;;17.48;46.26;95302.06;5101757;28;20539;-69
2022/10/15 01:10:49;;;;;;;0.30;0.30;;;;;;;17.78;45.64;95298.91;5112234;28;20437;-68
2022/10/15 01:13:39;;;;;;;0.03;0.03;;;;;;;17.94;45.31;95301.03;5112480;28;20432;-67
2022/10/15 01:16:21;;;;;;;0.40;0.40;;;;;;;18.01;44.99;95298.00;5117240;28;20519;-65
2022/10/15 01:18:55;;;;;;;0.00;0.00;;;;;;;17.94;45.42;95297.56;5098551;28;20534;-65
2022/10/15 01:21:31;;;;;;;0.33;0.33;;;;;;;17.81;45.66;95296.47;5091349;28;20958;-64
2022/10/15 01:24:22;;;;;;;0.00;0.00;;;;;;;17.92;45.62;95291.78;5090063;28;20448;-67
2022/10/15 01:26:59;;;;;;;0.00;0.00;;;;;;;17.88;45.87;95302.19;5095822;28;20441;-67
2022/10/15 01:29:58;;;;;;;1.17;0.30;;;;;;;17.84;45.94;95303.06;5103915;28;20534;-64
2022/10/15 01:32:35;;;;;;;0.00;0.00;;;;;;;17.89;45.64;95297.66;5091258;28;20443;-70
2022/10/15 01:35:14;;;;;;;2.73;1.07;;;;;;;17.78;45.92;95296.25;5097068;28;20436;-62
2022/10/15 01:37:49;;;;;;;0.00;0.00;;;;;;;17.81;46.34;95298.34;5097342;28;20484;-64
2022/10/15 01:40:45;;;;;;;0.30;0.30;;;;;;;17.76;46.19;95298.41;5109958;28;20447;-66
2022/10/15 01:43:18;;;;;;;0.90;0.67;;;;;;;17.89;46.03;95298.47;5095823;28;20527;-68
2022/10/15 01:46:10;;;;;;;0.00;0.00;;;;;;;17.74;46.15;95298.72;5094037;27;20429;-66
2022/10/15 01:48:42;;;;;;;1.50;1.03;;;;;;;17.78;46.39;95298.91;5104300;28;20850;-66
2022/10/15 01:51:14;;;;;;;0.37;0.37;;;;;;;17.71;46.54;95291.34;5091618;28;20451;-67
2022/10/15 01:53:43;;;;;;;1.40;1.20;;;;;;;17.67;46.38;95305.47;5105891;28;20855;-69
2022/10/15 01:56:16;;;;;;;0.03;0.03;;;;;;;17.67;46.74;95303.59;5091760;28;20471;-63
2022/10/15 01:58:47;;;;;;;0.17;0.17;;;;;;;17.73;46.53;95293.69;5111616;28;20487;-64
2022/10/15 02:01:14;;;;;;;0.10;0.10;;;;;;;17.80;46.36;95294.13;5111843;28;20440;-67
2022/10/15 02:03:46;;;;;;;1.13;1.00;;;;;;;17.93;45.93;95293.38;5111064;27;20452;-66
2022/10/15 02:06:32;;;;;;;1.03;0.70;;;;;;;17.76;46.75;95291.25;5102047;28;20455;-65
2022/10/15 02:09:09;;;;;;;0.00;0.00;;;;;;;17.86;46.25;95295.63;5091275;28;20952;-66
2022/10/15 02:11:57;;;;;;;0.10;0.10;;;;;;;17.82;46.11;95297.25;5100584;28;20453;-68
2022/10/15 02:14:50;;;;;;;0.10;0.10;;;;;;;17.72;46.51;95294.75;5109076;28;20444;-66
2022/10/15 02:17:25;;;;;;;0.13;0.13;;;;;;;17.67;46.82;95308.91;5108525;28;20464;-64
2022/10/15 02:20:00;;;;;;;0.60;0.60;;;;;;;17.69;46.72;95300.66;5088591;28;20449;-63
2022/10/15 02:22:38;;;;;;;0.87;0.63;;;;;;;17.56;47.28;95299.53;5089844;28;20452;-65
2022/10/15 02:25:12;;;;;;;0.20;0.20;;;;;;;17.57;47.31;95300.31;5109263;28;20504;-68
2022/10/15 02:27:41;;;;;;;0.10;0.10;;;;;;;17.78;46.80;95296.25;5108531;28;20459;-66
2022/10/15 02:30:09;;;;;;;0.00;0.00;;;;;;;17.76;46.61;95293.13;5100644;28;20461;-71
2022/10/15 02:32:39;;;;;;;0.67;0.50;;;;;;;17.74;46.91;95300.56;5089753;28;20975;-68
2022/10/15 02:35:09;;;;;;;0.47;0.47;;;;;;;17.88;46.67;95296.13;5088989;28;20469;-68
2022/10/15 02:37:45;;;;;;;0.23;0.23;;;;;;;17.56;47.21;95306.69;5088439;28;20465;-68
2022/10/15 02:40:21;;;;;;;0.47;0.47;;;;;;;17.65;46.71;95307.59;5110507;28;20432;-62
2022/10/15 02:42:50;;;;;;;0.50;0.50;;;;;;;17.64;47.18;95300.75;5105448;28;20441;-67
2022/10/15 02:45:17;;;;;;;0.20;0.20;;;;;;;17.67;47.06;95300.94;5101630;28;20503;-64
2022/10/15 02:47:44;;;;;;;0.10;0.10;;;;;;;17.55;47.29;95305.13;5110071;28;20955;-68
2022/10/15 02:50:10;;;;;;;0.00;0.00;;;;;;;17.80;46.47;95294.13;5099086;28;20443;-68
2022/10/15 02:52:38;;;;;;;0.63;0.30;;;;;;;17.76;46.61;95298.41;5088233;28;20498;-69
2022/10/15 02:55:05;;;;;;;0.20;0.20;;;;;;;17.81;46.61;95291.16;5089804;28;20449;-70
2022/10/15 02:57:32;;;;;;;0.17;0.17;;;;;;;17.81;46.66;95295.69;5094331;28;20550;-63
2022/10/15 02:59:59;;;;;;;0.03;0.03;;;;;;;17.81;46.52;95296.47;5097302;28;20437;-65
2022/10/15 03:02:26;;;;;;;0.50;0.50;;;;;;;17.83;46.40;95282.91;5087887;28;20468;-67
2022/10/15 03:04:53;;;;;;;0.13;0.13;;;;;;;17.65;47.06;95297.00;5098052;28;20437;-63
2022/10/15 03:07:22;;;;;;;0.23;0.23;;;;;;;17.74;47.11;95300.56;5091120;28;20444;-64
2022/10/15 03:09:49;;;;;;;0.70;0.40;;;;;;;17.81;46.99;95298.34;5109515;28;20539;-71
2022/10/15 03:12:16;;;;;;;0.07;0.07;;;;;;;17.32;47.72;95298.03;5093787;28;20434;-69
2022/10/15 03:14:43;;;;;;;1.00;0.57;;;;;;;17.58;47.35;95297.38;5100876;28;21177;-65
2022/10/15 03:17:12;;;;;;;0.10;0.10;;;;;;;17.66;47.28;95299.38;5103958;28;20780;-69
2022/10/15 03:19:39;;;;;;;0.00;0.00;;;;;;;17.71;47.04;95293.19;5105029;28;20468;-68
2022/10/15 03:22:06;;;;;;;0.87;0.60;;;;;;;17.57;47.34;95295.03;5097215;28;20433;-69
2022/10/15 03:24:42;;;;;;;0.80;0.33;;;;;;;17.51;47.11;95286.38;5102152;28;20433;-64
2022/10/15 03:27:09;;;;;;;0.10;0.10;;;;;;;17.64;47.49;95306.03;5106943;28;21243;-69
2022/10/15 03:29:36;;;;;;;2.47;0.87;;;;;;;17.68;46.95;95307.03;5089568;28;20438;-66
2022/10/15 03:32:03;;;;;;;0.37;0.37;;;;;;;17.60;47.35;95299.75;5098281;28;21033;-65
2022/10/15 03:34:31;;;;;;;0.00;0.00;;;;;;;17.61;47.36;95304.75;5108317;28;20439;-67
2022/10/15 03:36:59;;;;;;;0.03;0.03;;;;;;;17.35;47.88;95300.09;5099341;28;20482;-68
2022/10/15 03:39:26;;;;;;;0.47;0.47;;;;;;;17.34;47.59;95296.66;5088993;28;20473;-70
2022/10/15 03:41:57;;;;;;;0.30;0.30;;;;;;;17.68;47.19;95304.41;5094803;28;20483;-71
2022/10/15 03:44:30;;;;;;;0.10;0.10;;;;;;;17.53;47.43;95305.41;5088031;28;20472;-66
2022/10/15 03:47:05;;;;;;;0.60;0.60;;;;;;;17.63;47.02;95304.44;5103250;28;21041;-68
2022/10/15 03:49:41;;;;;;;0.20;0.20;;;;;;;17.63;47.33;95310.53;5101009;28;20539;-63
2022/10/15 03:52:08;;;;;;;0.10;0.10;;;;;;;17.61;47.16;95301.34;5087737;28;20479;-69
2022/10/15 03:54:35;;;;;;;0.20;0.20;;;;;;;17.63;47.05;95309.75;5087596;28;20552;-69
2022/10/15 03:57:01;;;;;;;0.57;0.57;;;;;;;17.62;47.33;95303.69;5090838;28;20857;-69
2022/10/15 03:59:33;;;;;;;0.20;0.20;;;;;;;17.60;46.89;95302.38;5108188;28;20468;-68
2022/10/15 04:02:02;;;;;;;0.10;0.10;;;;;;;17.67;47.20;95305.47;5092339;28;20440;-66
2022/10/15 04:04:31;;;;;;;0.13;0.13;;;;;;;17.70;46.88;95310.19;5087841;28;20528;-65
2022/10/15 04:06:58;;;;;;;0.10;0.10;;;;;;;17.56;47.82;95312.00;5101393;28;20449;-63
2022/10/15 04:09:25;;;;;;;0.90;0.83;;;;;;;17.51;47.22;95312.06;5087184;28;20441;-67
2022/10/15 04:12:04;;;;;;;0.20;0.20;;;;;;;17.49;47.42;95300.97;5087754;28;20480;-65
2022/10/15 04:14:31;;;;;;;0.10;0.10;;;;;;;17.64;47.62;95319.28;5107775;28;20501;-69
2022/10/15 04:16:58;;;;;;;0.10;0.10;;;;;;;17.52;48.20;95308.31;5096744;28;21003;-66
2022/10/15 04:19:26;;;;;;;0.20;0.20;;;;;;;17.45;47.82;95316.63;5086921;28;20484;-67
2022/10/15 04:22:02;;;;;;;0.37;0.37;;;;;;;17.60;47.80;95315.63;5101385;28;21013;-66
2022/10/15 04:24:36;;;;;;;0.50;0.50;;;;;;;17.47;47.64;95317.16;5091932;28;20440;-69
2022/10/15 04:27:03;;;;;;;0.83;0.70;;;;;;;17.35;48.30;95313.34;5099142;28;20445;-69
2022/10/15 04:29:30;;;;;;;0.20;0.20;;;;;;;17.51;48.05;95318.16;5074026;28;20806;-66
2022/10/15 04:32:14;;;;;;;1.60;0.70;;;;;;;17.52;47.64;95313.63;5091279;28;21009;-63
2022/10/15 04:34:42;;;;;;;0.37;0.37;;;;;;;17.44;47.63;95303.66;5091501;28;21058;-66
2022/10/15 04:37:09;;;;;;;1.40;0.60;;;;;;;17.41;47.80;95317.50;5101541;28;20506;-63
2022/10/15 04:39:36;;;;;;;1.07;0.67;;;;;;;17.41;47.92;95314.84;5095471;28;20522;-70
2022/10/15 04:42:03;;;;;;;0.30;0.30;;;;;;;17.37;48.02;95321.78;5094772;28;20444;-71
2022/10/15 04:44:32;;;;;;;0.20;0.20;;;;;;;17.26;48.17;95323.81;5099282;28;20494;-70
2022/10/15 04:47:01;;;;;;;2.80;1.13;;;;;;;17.58;47.52;95323.09;5099191;28;20845;-71
2022/10/15 04:49:54;;;;;;;0.10;0.10;;;;;;;17.53;47.46;95328.47;5106789;28;20536;-70
2022/10/15 04:52:41;;;;;;;0.40;0.40;;;;;;;17.51;47.62;95327.97;5099552;28;20493;-69
2022/10/15 04:55:10;;;;;;;1.60;1.07;;;;;;;17.56;47.71;95335.84;5096211;27;20445;-71
2022/10/15 04:57:38;;;;;;;0.00;0.00;;;;;;;17.49;47.69;95332.75;5090569;28;20491;-70
2022/10/15 05:00:05;;;;;;;0.87;0.80;;;;;;;17.72;47.07;95334.53;5091827;28;20441;-71
2022/10/15 05:02:33;;;;;;;0.20;0.20;;;;;;;17.68;47.45;95330.91;5096743;28;20441;-71
2022/10/15 05:05:30;;;;;;;0.47;0.47;;;;;;;17.46;48.39;95328.03;5111281;28;20456;-76
2022/10/15 05:08:03;;;;;;;2.33;0.73;;;;;;;17.62;47.69;95345.28;5093212;28;20441;-71
2022/10/15 05:10:53;;;;;;;1.43;1.33;;;;;;;17.62;47.02;95340.00;5094800;28;20451;-71
2022/10/15 05:13:20;;;;;;;0.50;0.50;;;;;;;17.42;47.64;95350.84;5111644;28;20444;-71
2022/10/15 05:15:48;;;;;;;0.30;0.30;;;;;;;17.36;48.18;95346.69;5099164;28;20459;-70
2022/10/15 05:18:15;;;;;;;0.00;0.00;;;;;;;17.36;48.36;95352.00;5097084;28;20541;-67
2022/10/15 05:20:49;;;;;;;0.20;0.20;;;;;;;17.65;47.90;95350.00;5097121;28;20498;-68
2022/10/15 05:23:18;;;;;;;0.83;0.83;;;;;;;17.43;48.68;95341.81;5097204;28;20448;-69
2022/10/15 05:25:58;;;;;;;0.20;0.20;;;;;;;17.29;49.73;95352.34;5089383;28;20441;-66
2022/10/15 05:28:26;;;;;;;2.30;1.80;;;;;;;17.56;49.37;95359.69;5090780;28;20449;-70
2022/10/15 05:30:53;;;;;;;3.73;1.10;;;;;;;17.42;48.46;95356.94;5099258;27;20449;-69
2022/10/15 05:33:20;;;;;;;0.37;0.37;;;;;;;17.83;47.92;95362.44;5090831;28;20433;-68
2022/10/15 05:35:47;;;;;;;0.87;0.67;;;;;;;17.94;47.42;95363.88;5095605;28;20436;-69
2022/10/15 05:38:14;;;;;;;0.10;0.10;;;;;;;18.04;47.24;95358.41;5100907;28;20496;-71
2022/10/15 05:40:48;;;;;;;0.73;0.73;;;;;;;18.09;47.02;95358.31;5103769;28;20469;-72
2022/10/15 05:43:18;;;;;;;0.77;0.73;;;;;;;17.86;47.58;95373.25;5089470;28;20456;-74
2022/10/15 05:45:47;;;;;;;0.43;0.43;;;;;;;18.03;47.15;95372.72;5104676;27;20565;-73
2022/10/15 05:48:14;;;;;;;0.10;0.10;;;;;;;18.17;46.70;95378.88;5099777;28;20448;-67
2022/10/15 05:50:41;;;;;;;0.47;0.47;;;;;;;18.32;46.12;95378.59;5104913;27;20441;-69
2022/10/15 05:53:13;;;;;;;0.10;0.10;;;;;;;18.65;45.65;95374.88;5089462;28;20508;-70
2022/10/15 05:55:45;;;;;;;0.10;0.10;;;;;;;18.67;45.70;95378.00;5106588;28;20533;-71
2022/10/15 05:58:12;;;;;;;0.87;0.83;;;;;;;18.28;45.76;95372.34;5098987;28;20477;-68
2022/10/15 06:00:39;;;;;;;0.60;0.33;;;;;;;18.38;46.30;95379.31;5106531;28;20531;-70
2022/10/15 06:03:05;;;;;;;0.10;0.10;;;;;;;18.54;46.11;95378.78;5110921;28;20447;-72
2022/10/15 06:05:32;;;;;;;0.10;0.10;;;;;;;18.61;45.48;95376.53;5109216;28;20444;-68
2022/10/15 06:07:59;;;;;;;0.57;0.57;;;;;;;18.54;45.88;95370.81;5102248;28;20444;-70
2022/10/15 06:10:27;;;;;;;1.33;0.33;;;;;;;18.00;46.93;95386.59;5104011;28;20432;-67
2022/10/15 06:12:54;;;;;;;0.30;0.30;;;;;;;18.48;46.30;95379.97;5089913;28;20940;-68
2022/10/15 06:15:21;;;;;;;2.00;1.50;;;;;;;18.20;46.14;95394.22;5114525;27;21011;-68
2022/10/15 06:17:52;;;;;;;0.30;0.30;;;;;;;18.45;45.76;95385.06;5097483;27;20440;-67
2022/10/15 06:20:19;;;;;;;0.37;0.37;;;;;;;18.12;46.12;95394.84;5097977;27;20476;-69
2022/10/15 06:22:45;;;;;;;1.03;1.03;;;;;;;18.47;45.76;95394.31;5100575;28;20964;-68
2022/10/15 06:25:12;;;;;;;1.03;0.87;;;;;;;18.48;45.72;95390.59;5104632;28;20526;-63
2022/10/15 06:27:39;;;;;;;2.00;0.53;;;;;;;18.31;45.94;95390.31;5095297;28;20869;-68
2022/10/15 06:30:07;;;;;;;0.30;0.30;;;;;;;17.76;46.84;95399.13;5099395;27;20456;-62
2022/10/15 06:32:34;;;;;;;0.00;0.00;;;;;;;17.49;47.48;95404.31;5087794;28;20872;-66
2022/10/15 06:35:01;;;;;;;0.10;0.10;;;;;;;18.03;47.00;95409.84;5089809;28;20494;-67
2022/10/15 06:37:28;;;;;;;0.73;0.73;;;;;;;18.44;46.24;95407.38;5089665;28;20430;-65
2022/10/15 06:39:57;;;;;;;1.33;1.23;;;;;;;18.37;46.12;95410.38;5089281;28;20485;-64
2022/10/15 06:42:24;;;;;;;0.20;0.20;;;;;;;18.38;46.25;95422.56;5089123;28;20847;-65
2022/10/15 06:44:53;;;;;;;0.37;0.37;;;;;;;18.69;45.60;95407.72;5092750;27;20472;-63
2022/10/15 06:47:20;;;;;;;0.60;0.53;;;;;;;18.31;45.76;95411.53;5088929;28;20449;-68
2022/10/15 06:49:49;;;;;;;0.20;0.20;;;;;;;18.10;46.28;95405.75;5091114;28;20441;-68
2022/10/15 06:52:16;;;;;;;1.27;1.17;;;;;;;17.77;46.74;95412.09;5088724;28;20535;-64
2022/10/15 06:54:42;;;;;;;0.10;0.10;;;;;;;18.05;46.60;95407.72;5094676;28;20540;-64
2022/10/15 06:57:09;;;;;;;0.10;0.10;;;;;;;17.96;46.56;95412.09;5106141;28;20950;-69
2022/10/15 06:59:36;;;;;;;0.60;0.60;;;;;;;18.20;46.11;95407.47;5095394;28;21037;-64
2022/10/15 07:02:09;;;;;;;0.40;0.40;;;;;;;17.61;46.76;95424.00;5109088;28;21209;-64
2022/10/15 07:04:36;;;;;;;0.00;0.00;;;;;;;18.21;46.88;95414.34;5104778;28;20475;-61
2022/10/15 07:07:02;;;;;;;0.77;0.57;;;;;;;17.73;47.16;95428.88;5108172;28;20824;-68
2022/10/15 07:09:29;;;;;;;12.77;7.30;;;;;;;18.74;45.79;95415.56;5109871;27;20981;-72
2022/10/15 07:11:56;;;;;;;3.13;1.70;;;;;;;18.09;46.10;95419.31;5110127;28;20436;-67
2022/10/15 07:14:23;;;;;;;1.33;1.23;;;;;;;18.85;45.66;95416.97;5109341;28;20447;-64
2022/10/15 07:16:50;;;;;;;0.40;0.40;;;;;;;18.65;44.69;95424.53;5109514;28;20492;-70
2022/10/15 07:19:17;;;;;;;0.50;0.50;;;;;;;18.42;45.75;95423.59;5095098;28;20476;-73
2022/10/15 07:21:45;;;;;;;0.10;0.10;;;;;;;18.46;44.50;95429.91;5095254;28;21001;-65
2022/10/15 07:24:12;;;;;;;0.60;0.60;;;;;;;18.72;44.49;95427.59;5096189;28;20437;-73
2022/10/15 07:26:39;;;;;;;0.40;0.27;;;;;;;19.02;42.78;95422.50;5089483;28;20560;-71
2022/10/15 07:29:06;;;;;;;1.43;1.33;;;;;;;19.42;42.35;95409.50;5099853;28;20435;-69
2022/10/15 07:31:33;;;;;;;0.30;0.30;;;;;;;19.52;41.79;95398.66;5091257;28;20441;-66
2022/10/15 07:34:00;;;;;;;0.10;0.10;;;;;;;19.46;42.04;95415.78;5098721;28;21038;-69
2022/10/15 07:36:27;;;;;;;0.20;0.20;;;;;;;19.29;42.06;95412.94;5092716;28;20441;-72
2022/10/15 07:38:54;;;;;;;0.60;0.60;;;;;;;18.98;42.78;95420.72;5096223;28;20471;-71
2022/10/15 07:41:21;;;;;;;0.70;0.70;;;;;;;19.10;41.69;95411.16;5100724;28;20441;-67
2022/10/15 07:43:52;;;;;;;3.30;0.93;;;;;;;18.78;42.06;95419.22;5102682;28;20448;-71
2022/10/15 07:46:19;;;;;;;0.63;0.63;;;;;;;19.33;42.42;95421.91;5099956;28;20491;-70
2022/10/15 07:48:52;;;;;;;0.40;0.40;;;;;;;18.70;42.82;95429.75;5088858;28;20494;-72
2022/10/15 07:51:19;;;;;;;0.80;0.70;;;;;;;19.27;42.14;95418.53;5100702;28;20440;-69
2022/10/15 07:53:46;;;;;;;0.53;0.47;;;;;;;19.77;40.82;95401.56;5106865;28;20432;-70
2022/10/15 07:56:15;;;;;;;0.30;0.30;;;;;;;19.67;41.46;95416.94;5100841;28;20497;-71
2022/10/15 07:58:42;;;;;;;6.83;6.17;;;;;;;20.38;41.29;95410.78;5108183;28;20460;-66
2022/10/15 08:01:10;;;;;;;1.50;1.33;;;;;;;20.51;39.75;95410.69;5112861;28;20535;-69
2022/10/15 08:03:37;;;;;;;1.03;1.03;;;;;;;20.87;39.13;95419.38;5098741;28;20469;-72
2022/10/15 08:06:06;;;;;;;0.10;0.10;;;;;;;21.09;38.05;95415.88;5108827;27;20538;-66
2022/10/15 08:08:34;;;;;;;0.63;0.60;;;;;;;20.20;40.03;95425.84;5104309;28;20475;-66
2022/10/15 08:11:09;;;;;;;2.93;2.67;;;;;;;20.82;39.30;95422.13;5106743;28;20447;-65
2022/10/15 08:13:39;;;;;;;1.07;1.07;;;;;;;20.91;38.34;95408.88;5105319;28;20458;-66
2022/10/15 08:16:09;;;;;;;0.67;0.67;;;;;;;21.32;37.57;95413.88;5107188;27;21001;-71
2022/10/15 08:18:36;;;;;;;1.70;1.40;;;;;;;21.53;37.15;95409.56;5092618;28;20468;-72
2022/10/15 08:21:05;;;;;;;0.53;0.50;;;;;;;21.03;37.73;95412.56;5106219;28;20454;-69
2022/10/15 08:23:33;;;;;;;0.10;0.10;;;;;;;21.33;37.53;95410.16;5092192;28;20475;-71
2022/10/15 08:26:00;;;;;;;0.83;0.83;;;;;;;21.94;37.31;95399.25;5108589;27;20489;-68
2022/10/15 08:28:28;;;;;;;0.20;0.20;;;;;;;20.77;38.16;95406.28;5112427;28;20438;-69
2022/10/15 08:30:59;;;;;;;0.50;0.50;;;;;;;21.62;37.42;95407.69;5106956;27;20440;-66
2022/10/15 08:33:32;;;;;;;0.63;0.63;;;;;;;21.58;37.78;95407.53;5111691;28;20531;-68
2022/10/15 08:35:59;;;;;;;0.33;0.33;;;;;;;21.03;38.43;95401.09;5107342;28;20519;-66
2022/10/15 08:38:27;;;;;;;0.40;0.40;;;;;;;21.14;38.47;95397.06;5105120;28;20467;-66
2022/10/15 08:40:58;;;;;;;1.43;1.33;;;;;;;21.60;37.61;95400.00;5099460;28;20488;-65
2022/10/15 08:43:36;;;;;;;0.43;0.37;;;;;;;21.45;37.95;95391.66;5120780;28;20436;-66
2022/10/15 08:46:11;;;;;;;0.57;0.37;;;;;;;21.68;37.85;95390.41;5100922;28;20433;-67
2022/10/15 08:48:48;;;;;;;3.60;3.07;;;;;;;21.49;36.66;95388.06;5102813;28;20450;-68
2022/10/15 08:51:20;;;;;;;3.33;3.07;;;;;;;22.11;35.36;95393.91;5101226;28;20440;-72
2022/10/15 08:53:59;;;;;;;0.87;0.87;;;;;;;22.10;35.50;95392.34;5094539;28;20436;-73
2022/10/15 08:56:32;;;;;;;8.47;1.30;;;;;;;21.44;34.91;95400.75;5100349;28;20543;-68
2022/10/15 08:59:05;;;;;;;1.30;0.50;;;;;;;22.00;34.37;95387.34;5105406;28;20472;-69
2022/10/15 09:01:45;;;;;;;0.30;0.30;;;;;;;21.73;35.80;95400.97;5104912;28;20439;-68
2022/10/15 09:04:50;;;;;;;0.83;0.83;;;;;;;21.58;35.93;95401.41;5111696;28;20448;-66
2022/10/15 09:07:36;;;;;;;0.30;0.30;;;;;;;21.47;35.89;95395.59;5109262;28;20489;-71
2022/10/15 09:10:26;;;;;;;0.33;0.33;;;;;;;21.69;36.40;95397.34;5094143;27;20444;-67
2022/10/15 09:13:06;;;;;;;0.20;0.20;;;;;;;21.99;34.18;95396.41;5111544;28;20452;-66
2022/10/15 09:15:40;;;;;;;0.10;0.10;;;;;;;22.35;35.19;95383.53;5108052;28;20427;-67
2022/10/15 09:18:16;;;;;;;0.73;0.60;;;;;;;22.75;33.21;95392.88;5111177;28;20217;-68
2022/10/15 09:20:43;;;;;;;4.77;2.83;;;;;;;22.26;34.84;95395.31;5108735;28;20459;-67
2022/10/15 09:23:18;;;;;;;1.57;1.47;;;;;;;22.36;34.81;95385.09;5111406;28;20706;-66
2022/10/15 09:25:54;;;;;;;1.10;1.03;;;;;;;22.59;34.36;95394.47;5112112;28;20587;-65
2022/10/15 09:28:28;;;;;;;0.07;0.07;;;;;;;22.38;33.17;95393.56;5096837;28;20444;-67
2022/10/15 09:30:57;;;;;;;0.50;0.50;;;;;;;22.36;33.72;95390.44;5109638;28;20485;-66
2022/10/15 09:33:26;;;;;;;0.70;0.70;;;;;;;22.69;32.52;95383.47;5096626;28;20439;-72
2022/10/15 09:36:03;;;;;;;0.43;0.43;;;;;;;22.82;32.52;95382.47;5097916;28;20444;-70
2022/10/15 09:38:49;;;;;;;0.10;0.10;;;;;;;22.77;32.52;95379.97;5110634;28;20610;-69
2022/10/15 09:41:24;;;;;;;0.17;0.17;;;;;;;23.05;32.85;95386.47;5092947;28;20437;-76
2022/10/15 09:43:55;;;;;;;1.73;1.63;;;;;;;23.26;32.62;95380.38;5106141;28;20486;-63
2022/10/15 09:46:22;;;;;;;0.50;0.50;;;;;;;23.20;32.17;95373.66;5103424;28;20958;-64
2022/10/15 09:49:04;;;;;;;0.10;0.10;;;;;;;22.91;32.47;95356.50;5090412;28;20469;-65
2022/10/15 09:51:42;;;;;;;0.10;0.10;;;;;;;23.14;32.31;95365.81;5101286;28;20199;-66
2022/10/15 09:54:19;;;;;;;1.13;1.03;;;;;;;23.03;32.92;95377.97;5090185;28;20806;-67
2022/10/15 09:56:54;;;;;;;0.30;0.30;;;;;;;23.22;33.10;95363.41;5103635;28;20284;-68
2022/10/15 09:59:22;;;;;;;0.23;0.23;;;;;;;22.88;32.95;95369.72;5090358;28;20226;-69
2022/10/15 10:02:01;;;;;;;0.87;0.37;;;;;;;23.26;31.89;95359.00;5104089;28;20629;-69
2022/10/15 10:04:33;;;;;;;0.20;0.20;;;;;;;23.37;32.49;95365.56;5091804;28;20248;-65
2022/10/15 10:07:08;;;;;;;0.40;0.40;;;;;;;22.71;33.11;95375.91;5103676;28;20199;-62
2022/10/15 10:09:47;;;;;;;0.37;0.37;;;;;;;22.38;32.65;95376.75;5088745;28;20589;-65
2022/10/15 10:12:21;;;;;;;0.70;0.70;;;;;;;22.59;32.81;95359.75;5105175;28;20271;-70
2022/10/15 10:14:56;;;;;;;0.63;0.63;;;;;;;21.84;34.02;95384.34;5095328;28;20198;-63
2022/10/15 10:17:30;;;;;;;4.30;3.83;;;;;;;22.71;32.29;95378.59;5103266;27;20283;-67
2022/10/15 10:20:09;;;;;;;7.93;2.93;;;;;;;23.58;31.51;95377.84;5099323;28;20596;-65
2022/10/15 10:23:19;;;;;;;6.03;0.70;;;;;;;22.96;31.49;95369.69;5099989;28;20213;-66
2022/10/15 10:25:47;;;;;;;0.60;0.50;;;;;;;22.43;31.41;95373.91;5095570;28;20190;-70
2022/10/15 10:28:31;;;;;;;0.20;0.20;;;;;;;23.14;31.25;95367.69;5095073;28;20306;-68
2022/10/15 10:31:03;;;;;;;0.20;0.20;;;;;;;23.41;30.24;95361.16;5101577;28;20645;-71
2022/10/15 10:33:41;;;;;;;0.13;0.13;;;;;;;22.93;32.00;95356.19;5105381;28;20645;-71
2022/10/15 10:36:29;;;;;;;0.70;0.70;;;;;;;22.74;30.45;95361.91;5101684;27;20194;-68
2022/10/15 10:39:27;;;;;;;0.63;0.63;;;;;;;23.09;31.25;95358.00;5089425;28;20199;-69
2022/10/15 10:42:00;;;;;;;1.20;1.20;;;;;;;23.60;30.42;95348.09;5099428;27;20213;-67
2022/10/15 10:44:27;;;;;;;0.40;0.40;;;;;;;23.47;31.17;95349.13;5103451;28;20311;-72
2022/10/15 10:47:26;;;;;;;0.30;0.30;;;;;;;23.91;30.10;95343.13;5100107;27;20222;-69
2022/10/15 10:49:56;;;;;;;0.10;0.10;;;;;;;23.51;31.11;95339.34;5089178;28;20195;-64
2022/10/15 10:52:31;;;;;;;0.27;0.27;;;;;;;24.12;29.62;95345.81;5103361;28;20199;-67
2022/10/15 10:55:21;;;;;;;0.20;0.17;;;;;;;24.75;28.97;95342.63;5109419;28;20206;-65
2022/10/15 10:57:56;;;;;;;0.30;0.30;;;;;;;23.83;30.13;95346.69;5106409;28;20247;-66
2022/10/15 11:00:39;;;;;;;0.30;0.30;;;;;;;24.00;30.24;95336.63;5109102;28;20210;-66
2022/10/15 11:03:31;;;;;;;0.73;0.73;;;;;;;23.88;30.64;95341.13;5109197;28;20190;-70
2022/10/15 11:06:20;;;;;;;0.63;0.47;;;;;;;23.72;31.34;95345.50;5087238;28;20195;-68
2022/10/15 11:08:49;;;;;;;0.23;0.23;;;;;;;23.51;31.51;95340.13;5108992;28;20199;-70
2022/10/15 11:11:26;;;;;;;1.13;1.13;;;;;;;24.18;30.73;95336.47;5110128;28;20600;-70
2022/10/15 11:14:19;;;;;;;3.07;1.93;;;;;;;23.56;31.44;95331.91;5108470;28;20198;-69
2022/10/15 11:17:07;;;;;;;0.30;0.30;;;;;;;23.64;31.70;95331.06;5099289;28;20420;-72
2022/10/15 11:19:44;;;;;;;1.70;1.07;;;;;;;23.26;30.88;95334.94;5103821;28;20218;-64
2022/10/15 11:22:49;;;;;;;0.33;0.33;;;;;;;23.08;31.60;95331.59;5102919;27;20632;-66
2022/10/15 11:25:21;;;;;;;0.20;0.20;;;;;;;23.23;31.84;95332.91;5099066;28;20237;-66
2022/10/15 11:28:05;;;;;;;0.53;0.50;;;;;;;23.06;31.58;95331.13;5103829;28;20197;-65
2022/10/15 11:30:49;;;;;;;0.13;0.13;;;;;;;23.24;31.21;95339.81;5090807;28;20210;-66
2022/10/15 11:33:25;;;;;;;0.83;0.77;;;;;;;24.02;30.26;95328.25;5109252;28;20293;-69
2022/10/15 11:36:18;;;;;;;0.30;0.30;;;;;;;23.96;30.35;95329.53;5108445;28;20625;-67
2022/10/15 11:39:02;;;;;;;0.17;0.17;;;;;;;23.16;30.65;95327.28;5097848;28;20293;-69
2022/10/15 11:41:42;;;;;;;0.17;0.17;;;;;;;23.04;31.55;95326.09;5094649;28;20291;-70
2022/10/15 11:44:21;;;;;;;0.30;0.30;;;;;;;23.28;31.60;95330.03;5108554;28;20225;-64
2022/10/15 11:47:33;;;;;;;2.27;0.80;;;;;;;23.03;31.54;95319.16;5104377;28;20275;-68
2022/10/15 11:50:08;;;;;;;1.10;0.73;;;;;;;22.57;31.70;95332.56;5082528;28;20252;-68
2022/10/15 11:52:46;;;;;;;0.10;0.10;;;;;;;22.60;31.85;95336.50;5096136;28;20209;-72
2022/10/15 11:55:25;;;;;;;0.20;0.20;;;;;;;23.05;31.36;95316.97;5097255;28;20199;-69
2022/10/15 11:57:58;;;;;;;0.20;0.20;;;;;;;22.81;31.70;95327.47;5103238;28;20187;-69
2022/10/15 12:00:44;;;;;;;0.20;0.20;;;;;;;22.34;32.31;95333.09;5108445;28;20225;-67